createdAt,value
2019-02-21T00:02:55.358Z,25.03
2019-02-21T00:07:59.552Z,25.30
2019-02-21T00:13:03.963Z,22.03
2019-02-21T00:18:08.266Z,30.17
2019-02-21T00:23:12.224Z,35.33
2019-02-21T00:28:16.116Z,27.10
2019-02-21T00:33:20.084Z,25.63
2019-02-21T00:38:24.304Z,26.97
2019-02-21T00:43:28.250Z,26.23
2019-02-21T00:48:32.256Z,29.13
2019-02-21T00:53:36.081Z,21.90
2019-02-21T00:58:40.472Z,29.03
2019-02-21T01:03:46.105Z,32.00
2019-02-21T01:08:50.244Z,24.83
2019-02-21T01:13:54.152Z,30.67
2019-02-21T01:18:58.050Z,34.37
2019-02-21T01:24:04.739Z,31.03
2019-02-21T01:29:07.758Z,29.30
2019-02-21T01:34:11.626Z,32.27
2019-02-21T01:39:15.598Z,32.83
2019-02-21T01:44:19.532Z,31.33
2019-02-21T01:49:23.549Z,37.03
2019-02-21T01:54:27.551Z,29.20
2019-02-21T01:59:31.510Z,32.20
2019-02-21T02:04:35.388Z,31.60
2019-02-21T02:09:39.282Z,34.43
2019-02-21T02:14:43.298Z,35.77
2019-02-21T02:19:47.296Z,31.07
2019-02-21T02:24:51.219Z,35.50
2019-02-21T02:29:58.270Z,33.93
2019-02-21T02:35:02.186Z,31.23
2019-02-21T02:40:06.423Z,35.40
2019-02-21T02:45:10.337Z,35.17
2019-02-21T02:50:14.128Z,30.77
2019-02-21T02:55:18.233Z,33.93
2019-02-21T03:00:22.123Z,31.43
2019-02-21T03:05:26.270Z,34.60
2019-02-21T03:10:33.284Z,31.10
2019-02-21T03:15:37.169Z,31.80
2019-02-21T03:20:43.847Z,29.83
2019-02-21T03:25:47.839Z,34.23
2019-02-21T03:30:51.727Z,35.70
2019-02-21T03:35:55.799Z,38.23
2019-02-21T03:40:59.821Z,33.60
2019-02-21T03:46:03.724Z,33.80
2019-02-21T03:51:07.751Z,33.90
2019-02-21T03:56:11.554Z,33.50
2019-02-21T04:01:15.538Z,31.80
2019-02-21T04:06:19.470Z,33.47
2019-02-21T04:11:23.384Z,36.10
2019-02-21T04:16:27.467Z,35.87
2019-02-21T04:21:31.356Z,35.03
2019-02-21T04:26:35.183Z,36.17
2019-02-21T04:31:39.134Z,38.13
2019-02-21T04:36:42.962Z,36.53
2019-02-21T04:41:46.870Z,34.13
2019-02-21T04:46:50.766Z,37.70
2019-02-21T04:51:54.659Z,36.43
2019-02-21T04:57:00.192Z,33.00
2019-02-21T05:02:04.082Z,34.37
2019-02-21T05:07:07.958Z,35.70
2019-02-21T05:12:12.016Z,33.87
2019-02-21T05:17:15.999Z,33.20
2019-02-21T05:22:19.889Z,39.50
2019-02-21T05:27:28.228Z,36.53
2019-02-21T05:32:42.255Z,37.20
2019-02-21T05:38:07.670Z,35.67
2019-02-21T05:43:31.149Z,38.67
2019-02-21T05:49:02.431Z,33.37
2019-02-21T05:54:17.065Z,38.33
2019-02-21T05:59:33.687Z,40.30
2019-02-21T06:04:56.644Z,43.97
2019-02-21T06:10:11.855Z,39.43
2019-02-21T06:15:37.568Z,38.07
2019-02-21T06:21:03.424Z,37.53
2019-02-21T06:26:39.533Z,49.33
2019-02-21T06:31:43.667Z,46.17
2019-02-21T06:36:47.554Z,50.53
2019-02-21T06:41:59.093Z,48.63
2019-02-21T06:46:57.158Z,49.53
2019-02-21T06:52:01.058Z,44.93
2019-02-21T06:57:05.046Z,46.13
2019-02-21T07:02:08.964Z,44.17
2019-02-21T07:07:12.818Z,44.67
2019-02-21T07:12:16.840Z,50.33
2019-02-21T07:17:20.690Z,45.07
2019-02-21T07:22:24.730Z,51.03
2019-02-21T07:27:28.940Z,59.03
2019-02-21T07:32:32.832Z,64.10
2019-02-21T07:37:36.816Z,63.80
2019-02-21T07:42:40.658Z,64.30
2019-02-21T07:47:44.556Z,62.53
2019-02-21T07:52:48.466Z,68.57
2019-02-21T07:57:52.490Z,73.30
2019-02-21T08:02:56.435Z,69.37
2019-02-21T08:08:00.362Z,80.97
2019-02-21T08:13:04.339Z,74.67
2019-02-21T08:18:08.352Z,84.57
2019-02-21T08:23:12.223Z,81.90
2019-02-21T08:28:16.106Z,85.90
2019-02-21T08:33:58.407Z,87.93
2019-02-21T08:38:56.995Z,84.53
2019-02-21T08:44:00.937Z,86.20
2019-02-21T08:49:04.876Z,89.30
2019-02-21T08:54:11.301Z,91.63
2019-02-21T08:59:14.474Z,93.83
2019-02-21T09:04:27.364Z,93.67
2019-02-21T09:09:24.182Z,90.00
2019-02-21T09:14:28.094Z,86.80
2019-02-21T09:19:32.105Z,84.60
2019-02-21T09:24:40.103Z,88.13
2019-02-21T09:29:41.566Z,80.00
2019-02-21T09:34:45.529Z,82.60
2019-02-21T09:39:49.442Z,83.87
2019-02-21T09:44:53.242Z,78.93
2019-02-21T09:49:57.081Z,78.97
2019-02-21T09:55:00.918Z,73.73
2019-02-21T10:00:05.412Z,71.90
2019-02-21T10:05:09.370Z,69.47
2019-02-21T10:10:15.552Z,69.27
2019-02-21T10:15:19.507Z,70.47
2019-02-21T10:20:23.430Z,70.70
2019-02-21T10:25:28.519Z,71.77
2019-02-21T10:30:32.509Z,70.50
2019-02-21T10:35:36.517Z,66.03
2019-02-21T10:40:40.448Z,65.80
2019-02-21T10:45:47.851Z,62.30
2019-02-21T10:50:49.982Z,63.33
2019-02-21T10:55:54.051Z,63.27
2019-02-21T11:00:58.140Z,59.37
2019-02-21T11:06:02.150Z,54.33
2019-02-21T11:11:06.112Z,52.60
2019-02-21T11:16:10.018Z,57.80
2019-02-21T11:21:13.882Z,58.23
2019-02-21T11:26:17.828Z,50.65
2019-02-21T11:31:21.794Z,53.68
2019-02-21T11:36:25.688Z,45.58
2019-02-21T11:41:29.650Z,49.85
2019-02-21T11:46:33.662Z,56.28
2019-02-21T11:51:37.579Z,50.92
2019-02-21T11:56:41.604Z,49.75
2019-02-21T12:01:45.439Z,55.45
2019-02-21T12:06:49.424Z,48.28
2019-02-21T12:11:53.382Z,51.40
2019-02-21T12:16:57.255Z,48.10
2019-02-21T12:22:01.273Z,51.05
2019-02-21T12:27:05.246Z,59.03
2019-02-21T12:32:09.160Z,58.25
2019-02-21T12:37:13.053Z,57.43
2019-02-21T12:42:17.038Z,51.25
2019-02-21T12:47:20.913Z,49.33
2019-02-21T12:52:24.822Z,55.35
2019-02-21T12:57:28.836Z,56.90
2019-02-21T13:02:33.133Z,62.15
2019-02-21T13:07:37.144Z,52.25
2019-02-21T13:12:40.982Z,56.80
2019-02-21T13:17:45.023Z,50.35
2019-02-21T13:22:48.829Z,50.73
2019-02-21T13:27:52.739Z,49.95
2019-02-21T13:32:56.560Z,47.70
2019-02-21T13:38:00.543Z,51.58
2019-02-21T13:43:04.419Z,38.05
2019-02-21T13:48:11.108Z,36.73
2019-02-21T13:53:14.961Z,44.23
2019-02-21T13:58:18.814Z,39.95
2019-02-21T14:03:22.936Z,43.98
2019-02-21T14:08:27.332Z,39.88
2019-02-21T14:13:31.168Z,38.28
2019-02-21T14:18:35.152Z,41.65
2019-02-21T14:23:39.068Z,31.65
2019-02-21T14:28:43.020Z,27.52
2019-02-21T14:33:46.978Z,23.47
2019-02-21T14:38:50.887Z,24.67
2019-02-21T14:43:54.772Z,19.77
2019-02-21T14:48:58.618Z,20.52
2019-02-21T14:54:02.530Z,19.95
2019-02-21T14:59:06.418Z,23.92
2019-02-21T15:04:10.452Z,21.62
2019-02-21T15:09:14.646Z,25.37
2019-02-21T15:14:18.715Z,22.32
2019-02-21T15:19:22.668Z,25.45
2019-02-21T15:24:26.686Z,24.40
2019-02-21T15:29:30.598Z,26.42
2019-02-21T15:34:34.544Z,26.85
2019-02-21T15:39:38.683Z,28.57
2019-02-21T15:44:42.759Z,25.23
2019-02-21T15:49:46.750Z,25.27
2019-02-21T15:54:50.738Z,28.60
2019-02-21T15:59:54.634Z,34.90
2019-02-21T16:04:58.770Z,34.58
2019-02-21T16:10:06.874Z,34.08
2019-02-21T16:15:11.855Z,36.98
2019-02-21T16:20:16.111Z,38.80
2019-02-21T16:25:20.842Z,37.83
2019-02-21T16:30:25.184Z,35.70
2019-02-21T16:35:29.275Z,34.20
2019-02-21T16:40:33.102Z,39.45
2019-02-21T16:45:43.641Z,42.00
2019-02-21T16:50:42.788Z,45.73
2019-02-21T16:55:46.694Z,48.57
2019-02-21T17:00:56.497Z,50.28
2019-02-21T17:05:56.313Z,44.43
2019-02-21T17:11:00.295Z,46.30
2019-02-21T17:16:05.180Z,52.70
2019-02-21T17:21:09.111Z,59.53
2019-02-21T17:26:13.421Z,66.87
2019-02-21T17:31:17.337Z,59.63
2019-02-21T17:36:22.310Z,58.97
2019-02-21T17:41:26.176Z,61.33
2019-02-21T17:46:30.536Z,53.77
2019-02-21T17:51:34.762Z,52.47
2019-02-21T17:56:38.739Z,55.23
2019-02-21T18:01:42.818Z,50.37
2019-02-21T18:06:47.073Z,43.13
2019-02-21T18:11:51.731Z,41.00
2019-02-21T18:16:55.782Z,47.40
2019-02-21T18:21:59.869Z,46.10
